Time;durP1;ratioP1;P1;durP2;ratioP2;P2;SDS_P1;SDS_P2;PMS_P1;PMS_P2;Temp;Humidity;BMP_temperature;BMP_pressure;BME280_temperature;BME280_humidity;BME280_pressure;Samples;Min_cycle;Max_cycle;Signal;HPM_P1;HPM_P2
2023/12/31 00:00:59;;;;;;;11.90;5.30;;;;;;;4.33;79.66;100386.96;216411;1253;60536;-77
2023/12/31 00:05:51;;;;;;;8.80;4.50;;;;;;;4.32;79.95;100387.08;216405;1253;60534;-77
2023/12/31 00:10:42;;;;;;;8.40;4.80;;;;;;;4.26;79.87;100384.96;216380;1253;60580;-77
2023/12/31 00:15:34;;;;;;;8.80;5.20;;;;;;;4.15;79.86;100388.70;216344;1253;60463;-77
2023/12/31 00:20:26;;;;;;;8.60;4.80;;;;;;;4.01;79.96;100390.22;216355;1253;60800;-77
2023/12/31 00:25:18;;;;;;;9.80;4.50;;;;;;;3.96;80.30;100392.77;216393;1256;72684;-78
2023/12/31 00:30:11;;;;;;;11.30;4.90;;;;;;;3.96;80.24;100390.90;216259;1253;60454;-77
2023/12/31 00:35:04;;;;;;;10.90;4.80;;;;;;;3.98;80.42;100392.34;216154;1253;60726;-77
2023/12/31 00:39:55;;;;;;;8.60;5.30;;;;;;;4.00;80.33;100394.80;216268;1253;60606;-77
2023/12/31 00:44:47;;;;;;;13.10;5.90;;;;;;;4.01;80.73;100397.24;216492;1253;60414;-77
2023/12/31 00:49:39;;;;;;;12.50;6.70;;;;;;;4.00;80.69;100400.30;216437;1253;67099;-77
2023/12/31 00:54:30;;;;;;;11.30;5.90;;;;;;;3.98;80.71;100403.30;216209;1251;60447;-77
2023/12/31 00:59:21;;;;;;;10.20;5.80;;;;;;;3.87;80.78;100408.21;216388;1253;60510;-77
2023/12/31 01:04:13;;;;;;;9.60;4.60;;;;;;;3.69;80.64;100413.16;216457;1253;60923;-77
2023/12/31 01:09:06;;;;;;;8.80;4.80;;;;;;;3.53;80.76;100414.07;216524;1253;60901;-77
2023/12/31 01:13:58;;;;;;;7.80;4.00;;;;;;;3.35;80.98;100416.06;216425;1253;61001;-77
2023/12/31 01:18:49;;;;;;;8.60;4.20;;;;;;;3.17;80.69;100425.27;216502;1253;60399;-77
2023/12/31 01:23:41;;;;;;;8.30;4.20;;;;;;;2.95;80.90;100426.90;216318;1253;70183;-77
2023/12/31 01:28:35;;;;;;;7.70;4.00;;;;;;;2.78;80.72;100428.22;216342;1253;60306;-77
2023/12/31 01:33:27;;;;;;;9.00;4.60;;;;;;;2.67;81.00;100426.56;216324;1253;60444;-77
2023/12/31 01:38:18;;;;;;;6.40;5.00;;;;;;;2.67;81.42;100428.45;216390;1253;60528;-77
2023/12/31 01:43:09;;;;;;;6.50;4.20;;;;;;;2.68;81.38;100433.77;216440;1253;64817;-77
2023/12/31 01:48:01;;;;;;;8.70;4.80;;;;;;;2.66;81.24;100433.33;216295;1253;60341;-77
2023/12/31 01:52:53;;;;;;;7.90;4.00;;;;;;;2.64;81.54;100433.94;216380;1255;60522;-77
2023/12/31 01:57:45;;;;;;;10.60;4.60;;;;;;;2.60;81.60;100438.21;216242;1256;61721;-77
2023/12/31 02:02:37;;;;;;;7.90;5.10;;;;;;;2.60;82.16;100438.89;216233;1253;60527;-77
2023/12/31 02:07:29;;;;;;;7.70;4.70;;;;;;;2.63;82.08;100433.56;216221;1253;60566;-77
2023/12/31 02:12:22;;;;;;;9.90;4.80;;;;;;;2.65;82.35;100441.67;216339;1253;60462;-77
2023/12/31 02:17:13;;;;;;;8.90;5.30;;;;;;;2.68;82.80;100443.86;216392;1256;72582;-77
2023/12/31 02:22:08;;;;;;;8.30;4.60;;;;;;;2.70;82.51;100440.54;216402;1256;60751;-77
2023/12/31 02:26:59;;;;;;;8.30;4.50;;;;;;;2.69;82.42;100443.58;216179;1254;60563;-77
2023/12/31 02:31:50;;;;;;;7.30;4.40;;;;;;;2.62;82.45;100441.38;216422;1253;60527;-77
2023/12/31 02:36:42;;;;;;;6.00;4.60;;;;;;;2.54;82.26;100447.86;216388;1253;60443;-77
2023/12/31 02:41:34;;;;;;;10.70;5.80;;;;;;;2.45;82.32;100446.24;216310;1253;60438;-77
2023/12/31 02:46:26;;;;;;;9.90;5.30;;;;;;;2.38;82.92;100453.98;216336;1253;60564;-77
2023/12/31 02:51:17;;;;;;;6.50;4.50;;;;;;;2.34;82.61;100454.15;216382;1253;60528;-78
2023/12/31 02:56:09;;;;;;;8.50;5.20;;;;;;;2.33;82.60;100461.27;216274;1253;73957;-77
2023/12/31 03:01:00;;;;;;;8.60;5.70;;;;;;;2.33;82.81;100461.46;216575;1253;60470;-77
2023/12/31 03:05:54;;;;;;;7.70;4.80;;;;;;;2.36;82.87;100461.23;216300;1257;60440;-77
2023/12/31 03:10:45;;;;;;;8.90;5.50;;;;;;;2.39;83.24;100461.56;216409;1256;60447;-77
2023/12/31 03:15:37;;;;;;;7.40;4.80;;;;;;;2.43;83.07;100470.83;216310;1254;60548;-77
2023/12/31 03:20:29;;;;;;;10.80;4.90;;;;;;;2.46;83.25;100475.56;216253;1254;60483;-76
2023/12/31 03:25:20;;;;;;;8.00;4.80;;;;;;;2.47;83.15;100475.27;216215;1254;60461;-77
2023/12/31 03:30:14;;;;;;;4.60;4.10;;;;;;;2.47;82.86;100483.14;216230;1254;66944;-77
2023/12/31 03:35:11;;;;;;;;;;;;;;;2.46;83.28;100486.35;216360;1256;60414;-77
2023/12/31 03:40:14;;;;;;;11.70;5.20;;;;;;;2.46;83.50;100492.87;216306;1253;72927;-77
2023/12/31 03:45:11;;;;;;;8.10;4.10;;;;;;;2.52;83.92;100495.68;216313;1254;73316;-77
2023/12/31 03:50:27;;;;;;;7.60;4.50;;;;;;;2.56;83.68;100498.96;216312;1256;60547;-77
2023/12/31 03:55:35;;;;;;;9.90;5.10;;;;;;;2.60;83.74;100496.38;216139;1254;67200;-77
2023/12/31 04:00:35;;;;;;;9.60;5.30;;;;;;;2.65;84.17;100489.61;216234;1254;60434;-77
2023/12/31 04:05:53;;;;;;;;;;;;;;;;;;;;;
2023/12/31 04:11:03;;;;;;;9.80;4.60;;;;;;;2.69;83.88;100485.16;216418;1256;70919;-77
2023/12/31 04:15:54;;;;;;;7.50;4.80;;;;;;;2.68;83.96;100488.02;216410;1256;60444;-77
2023/12/31 04:20:49;;;;;;;6.60;4.90;;;;;;;2.68;83.92;100487.85;216374;1256;67652;-76
2023/12/31 04:26:01;;;;;;;7.00;5.30;;;;;;;2.69;84.20;100487.52;216339;1256;60565;-77
2023/12/31 04:31:22;;;;;;;6.30;4.90;;;;;;;2.68;84.28;100485.79;216298;1257;75554;-77
2023/12/31 04:36:30;;;;;;;6.70;4.60;;;;;;;2.68;84.16;100489.89;216302;1256;71895;-77
2023/12/31 04:41:26;;;;;;;6.90;5.00;;;;;;;2.71;84.34;100490.56;216322;1256;60800;-77
2023/12/31 04:46:50;;;;;;;5.00;3.90;;;;;;;2.71;84.41;100490.73;216463;1254;68521;-76
2023/12/31 04:52:14;;;;;;;9.00;5.00;;;;;;;2.58;83.98;100497.00;216436;1254;60440;-77
2023/12/31 04:57:12;;;;;;;7.40;4.70;;;;;;;2.47;83.95;100495.99;216230;1257;72569;-77
2023/12/31 05:02:28;;;;;;;8.00;5.00;;;;;;;2.48;84.19;100495.50;216237;1253;71298;-76
2023/12/31 05:13:04;;;;;;;8.60;5.00;;;;;;;2.41;84.16;100488.16;215797;1254;67478;-76
2023/12/31 05:18:07;;;;;;;10.80;6.00;;;;;;;2.36;84.49;100486.71;216311;1256;62100;-76
2023/12/31 05:23:01;;;;;;;9.00;6.10;;;;;;;2.28;84.23;100501.77;216284;1254;72513;-76
2023/12/31 05:27:54;;;;;;;9.30;5.60;;;;;;;2.14;84.12;100502.66;216238;1254;60413;-76
2023/12/31 05:32:58;;;;;;;8.60;6.30;;;;;;;1.98;84.34;100495.39;216322;1253;60434;-76
2023/12/31 05:37:51;;;;;;;10.00;5.70;;;;;;;1.82;84.19;100496.17;216338;1255;66350;-76
2023/12/31 05:42:43;;;;;;;8.20;6.10;;;;;;;1.65;84.13;100497.55;216480;1254;60400;-76
2023/12/31 05:47:35;;;;;;;9.20;5.90;;;;;;;1.51;84.27;100496.00;216286;1254;60539;-76
2023/12/31 05:52:38;;;;;;;10.20;7.10;;;;;;;1.36;83.69;100504.83;216221;1254;71488;-76
2023/12/31 05:57:30;;;;;;;11.50;8.00;;;;;;;1.22;83.76;100508.53;216441;1254;60549;-76
2023/12/31 06:02:22;;;;;;;10.00;7.20;;;;;;;1.11;84.01;100508.89;216257;1254;60931;-76
2023/12/31 06:07:15;;;;;;;9.70;6.10;;;;;;;1.02;84.19;100510.28;216283;1254;61032;-76
2023/12/31 06:12:07;;;;;;;11.00;7.00;;;;;;;0.92;84.10;100511.63;216419;1255;61695;-76
2023/12/31 06:16:59;;;;;;;10.40;6.00;;;;;;;0.85;83.93;100508.68;216109;1254;60557;-76
2023/12/31 06:21:50;;;;;;;8.50;6.60;;;;;;;0.76;83.89;100508.22;216414;1254;60519;-76
2023/12/31 06:26:41;;;;;;;9.80;6.50;;;;;;;0.66;84.29;100502.75;216383;1256;60541;-76
2023/12/31 06:31:33;;;;;;;10.10;6.40;;;;;;;0.60;83.88;100501.27;216344;1254;72346;-76
2023/12/31 06:36:24;;;;;;;11.10;7.60;;;;;;;0.55;84.20;100498.25;216297;1253;60443;-76
2023/12/31 06:41:31;;;;;;;10.90;7.10;;;;;;;0.50;83.91;100503.23;216308;1254;60867;-77
2023/12/31 06:46:46;;;;;;;11.50;7.90;;;;;;;0.39;83.44;100505.23;216508;1254;67498;-77
2023/12/31 06:51:41;;;;;;;12.40;8.40;;;;;;;0.32;83.88;100510.48;216469;1253;59600;-77
2023/12/31 06:56:40;;;;;;;11.00;7.70;;;;;;;0.27;83.81;100507.33;216386;1254;72490;-77
2023/12/31 07:01:32;;;;;;;10.20;7.20;;;;;;;0.26;83.74;100509.65;216485;1256;73893;-77
2023/12/31 07:06:25;;;;;;;9.40;7.20;;;;;;;0.23;83.75;100508.09;216314;1254;60467;-77
2023/12/31 07:11:18;;;;;;;11.20;7.20;;;;;;;0.20;83.77;100515.95;216268;1254;60584;-77
2023/12/31 07:16:10;;;;;;;10.60;7.40;;;;;;;0.18;83.40;100516.21;216550;1254;60397;-78
2023/12/31 07:21:01;;;;;;;12.60;9.00;;;;;;;0.17;83.11;100512.70;216404;1254;60454;-77
2023/12/31 07:25:53;;;;;;;10.80;7.30;;;;;;;0.19;83.39;100507.70;216382;1253;60454;-77
2023/12/31 07:30:44;;;;;;;12.00;7.90;;;;;;;0.26;83.67;100506.73;216221;1254;73618;-77
2023/12/31 07:35:36;;;;;;;10.80;7.10;;;;;;;0.32;83.56;100512.86;216291;1253;60555;-77
2023/12/31 07:40:28;;;;;;;13.20;10.10;;;;;;;0.36;83.67;100513.77;216469;1253;60952;-77
2023/12/31 07:45:19;;;;;;;15.90;10.20;;;;;;;0.39;83.29;100515.27;216317;1254;72491;-77
2023/12/31 07:50:13;;;;;;;14.60;10.00;;;;;;;0.45;83.43;100512.85;216135;1253;179567;-77
2023/12/31 07:55:08;;;;;;;13.60;9.60;;;;;;;0.52;83.43;100518.23;216325;1253;60463;-77
2023/12/31 08:00:00;;;;;;;13.30;9.90;;;;;;;0.62;83.38;100519.08;216528;1253;60463;-77
2023/12/31 08:04:51;;;;;;;16.40;10.90;;;;;;;0.69;83.52;100520.66;216508;1253;60441;-77
2023/12/31 08:09:42;;;;;;;16.00;10.50;;;;;;;0.79;83.43;100518.77;216342;1253;60464;-77
2023/12/31 08:14:34;;;;;;;18.00;10.50;;;;;;;0.88;83.49;100522.16;216410;1253;74921;-76
2023/12/31 08:19:25;;;;;;;15.30;10.70;;;;;;;0.97;83.17;100525.34;216359;1253;60529;-77
2023/12/31 08:24:20;;;;;;;15.90;9.60;;;;;;;1.04;83.12;100532.08;216535;1253;60408;-77
2023/12/31 08:29:12;;;;;;;14.50;10.50;;;;;;;1.15;83.08;100530.91;216278;1256;71394;-77
2023/12/31 08:34:04;;;;;;;16.70;10.80;;;;;;;1.25;83.24;100531.73;216291;1254;60530;-77
2023/12/31 08:38:56;;;;;;;15.40;11.30;;;;;;;1.32;83.14;100531.64;216371;1253;60447;-77
2023/12/31 08:43:48;;;;;;;16.30;10.80;;;;;;;1.42;82.89;100537.40;216351;1252;60439;-77
2023/12/31 08:48:41;;;;;;;15.50;9.80;;;;;;;1.49;83.32;100542.73;216109;1254;60431;-76
2023/12/31 08:53:33;;;;;;;17.00;10.80;;;;;;;1.59;83.16;100545.91;216254;1255;60565;-76
2023/12/31 08:58:24;;;;;;;18.10;11.20;;;;;;;1.65;83.30;100539.95;216188;1254;62062;-76
2023/12/31 09:03:16;;;;;;;16.80;11.70;;;;;;;1.77;83.63;100537.10;216208;1253;60592;-76
2023/12/31 09:08:08;;;;;;;17.90;11.90;;;;;;;1.91;83.65;100536.27;216245;1253;73543;-76
2023/12/31 09:13:03;;;;;;;15.70;12.00;;;;;;;2.07;83.55;100526.79;215979;1253;60578;-76
2023/12/31 09:17:54;;;;;;;20.00;11.80;;;;;;;2.23;83.40;100525.32;216224;1251;60589;-76
2023/12/31 09:22:47;;;;;;;16.00;10.80;;;;;;;2.39;82.88;100523.98;216353;1253;60480;-76
2023/12/31 09:27:41;;;;;;;23.90;17.40;;;;;;;2.54;83.04;100521.11;216162;1253;60397;-76
2023/12/31 09:32:32;;;;;;;21.10;14.50;;;;;;;2.69;83.09;100518.88;216055;1253;61051;-76
2023/12/31 09:37:24;;;;;;;21.40;14.70;;;;;;;2.82;83.12;100512.25;216339;1256;60534;-76
2023/12/31 09:42:20;;;;;;;23.00;14.60;;;;;;;2.96;83.18;100501.95;216132;1253;73205;-77
2023/12/31 09:47:12;;;;;;;23.20;16.00;;;;;;;3.10;83.09;100498.25;216133;1253;71625;-77
2023/12/31 09:52:08;;;;;;;32.20;18.20;;;;;;;3.20;83.25;100487.75;216176;1253;60527;-76
2023/12/31 09:57:01;;;;;;;26.10;19.40;;;;;;;3.32;83.12;100485.67;216200;1254;67825;-75
2023/12/31 10:02:00;;;;;;;26.40;18.70;;;;;;;3.44;82.80;100482.58;216237;1253;60659;-75
2023/12/31 10:06:51;;;;;;;31.00;18.90;;;;;;;3.55;82.85;100472.08;216238;1252;75018;-75
2023/12/31 10:11:44;;;;;;;29.50;20.40;;;;;;;3.66;82.96;100468.41;216120;1253;60463;-75
2023/12/31 10:16:40;;;;;;;26.70;17.80;;;;;;;3.78;82.84;100468.40;216063;1253;60456;-75
2023/12/31 10:21:32;;;;;;;24.00;18.10;;;;;;;3.89;82.76;100463.47;216336;1253;66263;-75
2023/12/31 10:26:23;;;;;;;20.80;14.80;;;;;;;4.01;82.59;100460.89;216212;1253;60466;-76
2023/12/31 10:31:15;;;;;;;24.90;16.40;;;;;;;4.12;82.16;100456.20;216585;1253;60462;-76
2023/12/31 10:36:07;;;;;;;23.60;16.40;;;;;;;4.37;81.93;100454.89;216272;1253;60456;-76
2023/12/31 10:41:08;;;;;;;23.50;16.90;;;;;;;4.77;81.42;100449.33;216368;1253;60560;-76
2023/12/31 10:46:01;;;;;;;25.40;15.70;;;;;;;4.88;81.15;100442.48;216352;1253;71490;-76
2023/12/31 10:50:53;;;;;;;24.00;14.70;;;;;;;4.97;81.04;100443.50;216236;1252;60783;-77
2023/12/31 10:55:46;;;;;;;23.00;16.00;;;;;;;5.02;80.71;100440.92;216273;1255;60533;-76
2023/12/31 11:00:37;;;;;;;21.90;15.40;;;;;;;5.00;80.73;100430.89;216426;1252;60450;-76
2023/12/31 11:05:31;;;;;;;22.60;14.40;;;;;;;5.16;80.54;100422.02;216476;1252;60460;-77
2023/12/31 11:10:24;;;;;;;25.60;15.30;;;;;;;5.79;79.80;100409.60;216111;1252;60920;-76
2023/12/31 11:15:22;;;;;;;22.20;13.00;;;;;;;6.15;79.30;100395.58;216309;1252;60569;-77
2023/12/31 11:20:45;;;;;;;18.40;12.60;;;;;;;6.05;79.37;100384.13;216206;1253;72505;-77
2023/12/31 11:25:37;;;;;;;20.40;13.90;;;;;;;5.88;79.43;100380.31;216197;1253;60411;-76
2023/12/31 11:30:58;;;;;;;24.00;13.10;;;;;;;5.84;79.33;100372.96;216188;1254;60764;-76
2023/12/31 11:35:52;;;;;;;16.40;11.70;;;;;;;5.69;79.38;100363.90;216242;1252;60470;-76
2023/12/31 11:40:44;;;;;;;16.50;11.70;;;;;;;5.54;79.52;100362.38;216131;1252;72856;-76
2023/12/31 11:45:41;;;;;;;16.30;11.10;;;;;;;5.36;79.72;100355.80;216127;1253;60434;-76
2023/12/31 11:50:32;;;;;;;14.70;10.00;;;;;;;5.19;80.00;100346.33;216350;1252;60618;-76
2023/12/31 11:55:24;;;;;;;15.50;10.50;;;;;;;5.07;80.13;100342.14;216508;1252;60429;-76
2023/12/31 12:00:15;;;;;;;19.90;11.70;;;;;;;4.92;80.26;100342.35;216456;1252;60552;-76
2023/12/31 12:05:07;;;;;;;16.00;10.90;;;;;;;4.79;80.37;100332.13;216236;1252;65835;-76
2023/12/31 12:09:59;;;;;;;16.40;9.90;;;;;;;4.67;80.59;100324.65;216244;1253;60460;-76
2023/12/31 12:14:52;;;;;;;15.40;9.80;;;;;;;4.53;80.68;100332.44;216215;1253;60443;-76
2023/12/31 12:19:44;;;;;;;17.00;10.70;;;;;;;4.41;80.92;100331.48;216339;1253;60593;-75
2023/12/31 12:24:36;;;;;;;17.00;9.30;;;;;;;4.27;80.91;100337.67;216348;1253;73775;-76
2023/12/31 12:29:28;;;;;;;13.30;9.30;;;;;;;4.16;81.19;100344.64;216264;1253;60406;-75
2023/12/31 12:34:19;;;;;;;18.30;9.10;;;;;;;4.09;81.44;100339.21;216232;1253;60472;-75
2023/12/31 12:39:20;;;;;;;12.90;9.10;;;;;;;3.99;81.68;100343.15;216144;1253;60609;-75
2023/12/31 12:44:12;;;;;;;13.80;9.10;;;;;;;3.93;81.91;100340.88;216384;1253;60467;-76
2023/12/31 12:49:04;;;;;;;13.20;8.40;;;;;;;3.93;81.83;100340.00;216239;1252;60471;-76
2023/12/31 12:53:55;;;;;;;16.00;8.60;;;;;;;3.90;82.12;100339.71;216290;1255;60464;-75
2023/12/31 12:58:47;;;;;;;15.10;9.00;;;;;;;3.90;82.25;100338.85;216276;1253;67124;-76
2023/12/31 13:03:38;;;;;;;14.80;8.80;;;;;;;3.89;82.32;100333.35;216157;1253;60464;-76
2023/12/31 13:08:30;;;;;;;12.40;9.10;;;;;;;3.89;82.33;100324.09;216208;1252;60617;-76
2023/12/31 13:13:23;;;;;;;19.90;8.90;;;;;;;3.90;82.48;100320.34;216165;1253;60512;-76
2023/12/31 13:18:14;;;;;;;13.90;9.30;;;;;;;3.93;82.66;100309.29;216320;1253;60528;-76
2023/12/31 13:23:06;;;;;;;12.70;8.00;;;;;;;3.94;82.64;100300.10;216189;1253;60431;-76
2023/12/31 13:27:58;;;;;;;17.10;10.30;;;;;;;3.92;82.75;100291.27;216287;1253;60424;-76
2023/12/31 13:32:49;;;;;;;12.50;8.70;;;;;;;3.83;83.00;100293.16;216256;1253;73446;-75
2023/12/31 13:37:41;;;;;;;16.90;10.30;;;;;;;3.68;83.35;100293.98;216331;1253;60436;-75
2023/12/31 13:42:32;;;;;;;16.50;9.60;;;;;;;3.56;83.32;100289.73;216314;1253;60457;-75
2023/12/31 13:47:24;;;;;;;14.00;10.40;;;;;;;3.42;83.58;100284.09;216324;1253;60486;-75
2023/12/31 13:52:16;;;;;;;15.40;11.00;;;;;;;3.26;83.48;100282.06;216301;1252;60591;-75
2023/12/31 13:57:10;;;;;;;20.50;10.90;;;;;;;3.10;83.74;100273.73;216253;1253;60944;-75
2023/12/31 14:02:02;;;;;;;16.30;10.50;;;;;;;2.94;83.99;100271.05;216271;1253;60545;-77
2023/12/31 14:06:54;;;;;;;17.40;11.10;;;;;;;2.81;84.26;100265.89;216124;1252;60544;-75
2023/12/31 14:11:45;;;;;;;17.80;10.90;;;;;;;2.68;84.34;100268.27;216144;1252;74623;-75
2023/12/31 14:16:38;;;;;;;22.00;13.10;;;;;;;2.57;84.60;100263.20;216264;1253;61060;-76
2023/12/31 14:21:30;;;;;;;23.40;11.90;;;;;;;2.46;84.26;100262.42;216189;1252;60486;-76
2023/12/31 14:26:22;;;;;;;23.70;14.00;;;;;;;2.35;84.59;100262.09;216326;1253;60486;-75
2023/12/31 14:31:13;;;;;;;20.00;13.10;;;;;;;2.23;84.69;100259.36;216186;1253;60456;-76
2023/12/31 14:36:05;;;;;;;22.10;14.00;;;;;;;2.12;84.67;100262.13;216242;1252;60528;-76
2023/12/31 14:40:56;;;;;;;19.10;13.10;;;;;;;2.03;85.01;100246.70;216083;1253;62112;-76
2023/12/31 14:45:53;;;;;;;24.10;13.50;;;;;;;1.96;84.99;100243.98;216264;1253;66107;-76
2023/12/31 14:50:45;;;;;;;24.70;13.90;;;;;;;1.88;85.41;100238.89;216133;1253;60526;-75
2023/12/31 14:55:37;;;;;;;24.40;14.90;;;;;;;1.81;85.20;100241.30;216258;1253;60444;-75
2023/12/31 15:00:28;;;;;;;19.40;12.90;;;;;;;1.70;85.12;100237.73;216247;1253;60494;-75
2023/12/31 15:05:38;;;;;;;21.30;13.60;;;;;;;1.61;85.31;100237.01;216238;1253;72577;-75
2023/12/31 15:11:31;;;;;;;24.70;14.60;;;;;;;1.51;85.40;100229.02;216125;1253;71425;-76
2023/12/31 15:17:06;;;;;;;;;;;;;;;;;;;;;
2023/12/31 15:22:55;;;;;;;23.10;13.60;;;;;;;1.30;85.48;100214.04;215733;1253;66494;-75
2023/12/31 15:27:47;;;;;;;25.70;16.70;;;;;;;1.21;85.26;100202.72;216120;1253;60429;-75
2023/12/31 15:32:38;;;;;;;24.10;16.30;;;;;;;1.11;85.63;100191.19;216231;1253;60349;-75
2023/12/31 15:37:30;;;;;;;23.80;16.40;;;;;;;1.03;85.37;100183.94;216270;1253;60527;-76
2023/12/31 15:42:22;;;;;;;28.70;17.20;;;;;;;0.97;85.59;100178.71;216399;1253;73828;-76
2023/12/31 15:47:16;;;;;;;24.60;15.70;;;;;;;0.91;85.82;100169.58;216048;1256;60441;-76
2023/12/31 15:52:07;;;;;;;25.20;17.20;;;;;;;0.84;85.69;100162.09;216356;1255;60433;-76
2023/12/31 15:56:59;;;;;;;27.00;17.10;;;;;;;0.80;85.79;100161.35;216241;1253;60608;-75
2023/12/31 16:01:50;;;;;;;25.30;15.50;;;;;;;0.76;85.96;100147.90;216361;1253;60562;-76
2023/12/31 16:06:42;;;;;;;25.90;18.50;;;;;;;0.72;86.27;100142.59;216214;1253;66868;-76
2023/12/31 16:11:33;;;;;;;27.90;16.40;;;;;;;0.71;86.30;100144.09;216310;1253;60527;-75
2023/12/31 16:16:25;;;;;;;25.10;16.20;;;;;;;0.67;86.39;100131.79;216344;1253;60467;-75
2023/12/31 16:21:16;;;;;;;28.40;17.40;;;;;;;0.63;86.43;100124.27;216205;1253;60440;-75
2023/12/31 16:26:07;;;;;;;29.30;17.90;;;;;;;0.60;86.53;100120.02;216217;1253;60433;-75
2023/12/31 16:30:59;;;;;;;25.30;17.10;;;;;;;0.59;86.77;100116.42;216226;1255;60448;-75
2023/12/31 16:35:51;;;;;;;29.20;18.30;;;;;;;0.60;86.58;100116.23;216170;1253;72516;-75
2023/12/31 16:40:43;;;;;;;32.50;19.10;;;;;;;0.57;86.90;100115.09;216179;1253;60445;-75
2023/12/31 16:45:35;;;;;;;28.80;18.00;;;;;;;0.54;86.80;100105.27;216278;1255;60470;-75
2023/12/31 16:50:27;;;;;;;27.70;18.60;;;;;;;0.51;86.92;100109.51;216250;1253;72572;-75
2023/12/31 16:55:18;;;;;;;28.20;18.20;;;;;;;0.50;87.27;100106.75;216165;1256;61064;-75
2023/12/31 17:00:10;;;;;;;27.90;19.30;;;;;;;0.49;87.10;100100.20;216313;1252;60533;-75
2023/12/31 17:05:03;;;;;;;33.30;21.70;;;;;;;0.43;87.13;100092.08;216123;1253;60809;-76
2023/12/31 17:09:54;;;;;;;43.70;25.60;;;;;;;0.48;87.88;100079.06;216193;1253;60478;-74
2023/12/31 17:14:46;;;;;;;34.90;22.40;;;;;;;0.56;87.84;100063.73;216151;1253;60486;-74
2023/12/31 17:19:37;;;;;;;37.20;20.70;;;;;;;0.63;88.15;100059.09;216188;1253;60457;-74
2023/12/31 17:24:32;;;;;;;31.10;19.70;;;;;;;0.69;88.10;100042.81;216252;1253;60509;-74
2023/12/31 17:29:24;;;;;;;34.70;19.70;;;;;;;0.74;87.93;100043.60;216245;1252;60587;-74
2023/12/31 17:34:16;;;;;;;27.80;18.60;;;;;;;0.74;88.21;100066.79;216301;1251;60447;-74
2023/12/31 17:39:09;;;;;;;32.50;18.30;;;;;;;0.73;87.91;100073.04;216239;1253;72353;-74
2023/12/31 17:44:01;;;;;;;32.00;18.50;;;;;;;0.72;88.18;100072.65;216231;1253;70474;-74
2023/12/31 17:48:53;;;;;;;31.10;17.90;;;;;;;0.73;88.15;100072.02;216203;1255;60555;-74
2023/12/31 17:53:44;;;;;;;31.40;19.90;;;;;;;0.72;88.35;100073.00;216247;1253;60530;-74
2023/12/31 17:58:36;;;;;;;32.10;19.20;;;;;;;0.78;88.40;100064.35;216242;1256;61908;-75
2023/12/31 18:03:27;;;;;;;32.30;19.20;;;;;;;0.83;88.19;100055.73;216308;1253;60462;-74
2023/12/31 18:08:19;;;;;;;35.10;22.30;;;;;;;0.87;88.22;100047.04;216309;1253;60595;-74
2023/12/31 18:13:10;;;;;;;32.30;19.40;;;;;;;0.92;88.48;100035.83;216118;1253;67984;-74
2023/12/31 18:18:02;;;;;;;38.30;21.00;;;;;;;0.96;88.47;100023.89;216266;1253;60662;-74
2023/12/31 18:22:53;;;;;;;34.70;20.90;;;;;;;1.04;88.62;100016.25;216287;1253;60585;-75
2023/12/31 18:27:45;;;;;;;36.30;22.70;;;;;;;1.12;88.91;100019.52;216184;1253;60433;-74
2023/12/31 18:32:36;;;;;;;40.30;23.10;;;;;;;1.21;88.74;100006.55;216223;1253;60445;-75
2023/12/31 18:37:28;;;;;;;39.80;23.20;;;;;;;1.30;88.82;100001.48;216292;1255;60444;-75
2023/12/31 18:42:20;;;;;;;40.70;22.60;;;;;;;1.38;89.06;100011.54;216315;1252;74467;-75
2023/12/31 18:47:11;;;;;;;35.40;21.80;;;;;;;1.45;89.04;100012.20;216170;1253;60459;-75
2023/12/31 18:52:03;;;;;;;34.20;21.40;;;;;;;1.53;88.89;100011.68;216219;1253;60538;-75
2023/12/31 18:56:54;;;;;;;34.30;22.40;;;;;;;1.59;88.59;100002.48;216200;1253;71824;-74
2023/12/31 19:01:47;;;;;;;34.90;21.80;;;;;;;1.65;88.57;100002.08;216232;1253;60541;-74
2023/12/31 19:06:38;;;;;;;34.90;22.30;;;;;;;1.69;88.80;99997.29;216518;1253;60484;-73
2023/12/31 19:11:29;;;;;;;36.70;21.10;;;;;;;1.74;88.42;99996.13;216113;1252;60430;-75
2023/12/31 19:16:21;;;;;;;37.30;23.80;;;;;;;1.79;88.25;99994.45;216194;1253;60402;-75
2023/12/31 19:21:18;;;;;;;29.40;20.80;;;;;;;1.84;88.43;99982.67;216177;1253;60453;-74
2023/12/31 19:26:09;;;;;;;38.00;21.20;;;;;;;1.87;88.31;99974.11;216224;1253;72611;-75
2023/12/31 19:31:01;;;;;;;39.30;23.80;;;;;;;1.92;88.36;99973.95;216233;1253;60505;-74
2023/12/31 19:35:52;;;;;;;30.40;20.90;;;;;;;1.95;88.12;99968.06;216171;1253;60439;-75
2023/12/31 19:40:43;;;;;;;32.70;20.40;;;;;;;1.98;88.17;99960.83;216222;1252;71201;-75
2023/12/31 19:45:35;;;;;;;34.40;21.40;;;;;;;2.02;88.36;99956.92;216254;1251;60464;-75
2023/12/31 19:51:24;;;;;;;38.00;21.60;;;;;;;2.05;88.29;99951.90;215986;1253;324769;-75
2023/12/31 19:56:36;;;;;;;;;;;;;;;2.08;88.08;99958.36;216326;1253;61606;-75
2023/12/31 20:07:28;;;;;;;35.90;20.40;;;;;;;2.13;88.04;99945.39;216083;1255;60442;-75
2023/12/31 20:13:18;;;;;;;32.70;22.00;;;;;;;2.16;87.86;99934.38;216111;1253;72915;-75
2023/12/31 20:18:51;;;;;;;31.80;20.60;;;;;;;2.20;87.93;99927.67;216233;1253;71716;-76
2023/12/31 20:24:01;;;;;;;30.40;20.00;;;;;;;2.24;88.01;99912.61;216194;1256;60435;-74
2023/12/31 20:28:53;;;;;;;39.00;21.50;;;;;;;2.27;87.72;99915.65;216218;1253;67199;-74
2023/12/31 20:33:44;;;;;;;30.50;19.70;;;;;;;2.30;87.77;99911.63;216178;1253;61152;-74
2023/12/31 20:38:45;;;;;;;34.30;19.40;;;;;;;2.33;87.97;99907.64;216174;1253;71556;-74
2023/12/31 20:43:44;;;;;;;35.60;19.70;;;;;;;2.37;87.97;99903.66;216268;1255;71675;-74
2023/12/31 20:48:35;;;;;;;34.20;21.50;;;;;;;2.39;87.82;99902.40;216158;1253;60502;-75
2023/12/31 20:53:29;;;;;;;28.90;19.30;;;;;;;2.42;88.14;99901.13;216209;1255;67088;-74
2023/12/31 21:09:52;;;;;;;28.00;19.70;;;;;;;2.49;88.13;99889.59;216215;1254;73298;-75
2023/12/31 21:14:48;;;;;;;31.20;20.20;;;;;;;2.51;88.00;99887.26;216255;1253;60547;-74
2023/12/31 21:19:49;;;;;;;30.10;19.00;;;;;;;2.51;87.89;99892.23;216256;1253;64812;-74
2023/12/31 21:24:43;;;;;;;32.40;20.30;;;;;;;2.51;87.82;99891.02;216141;1255;60558;-74
2023/12/31 21:29:40;;;;;;;35.50;20.80;;;;;;;2.52;88.08;99886.77;216483;1255;59249;-74
2023/12/31 21:34:34;;;;;;;30.80;20.90;;;;;;;2.54;88.09;99884.79;216231;1253;72363;-74
2023/12/31 21:39:28;;;;;;;43.00;26.70;;;;;;;2.55;88.21;99878.52;216256;1255;60483;-74
2023/12/31 21:44:20;;;;;;;43.50;26.30;;;;;;;2.56;88.48;99869.16;216242;1255;61447;-74
2023/12/31 21:49:35;;;;;;;36.30;23.20;;;;;;;2.57;88.49;99859.40;216201;1255;60455;-75
2023/12/31 22:07:52;;;;;;;36.80;22.40;;;;;;;2.58;88.90;99844.06;216036;1256;60395;-75
2023/12/31 22:13:03;;;;;;;34.40;22.20;;;;;;;2.57;88.97;99847.09;216284;1257;67105;-75
2023/12/31 22:30:31;;;;;;;45.40;26.10;;;;;;;2.57;89.31;99829.13;214648;1263;73377;-75
2023/12/31 22:35:22;;;;;;;39.50;26.40;;;;;;;2.57;89.16;99823.67;214671;1263;60506;-75
2023/12/31 22:40:14;;;;;;;32.70;22.00;;;;;;;2.59;89.32;99829.03;214588;1265;60473;-74
2023/12/31 22:45:29;;;;;;;;;;;;;;;;;;;;;
2023/12/31 23:02:28;;;;;;;76.60;50.40;;;;;;;2.66;89.68;99808.41;214748;1260;73139;-74
2023/12/31 23:07:20;;;;;;;98.30;67.90;;;;;;;2.66;89.53;99799.19;215345;1259;60458;-74
2023/12/31 23:12:11;;;;;;;110.10;76.70;;;;;;;2.68;89.88;99793.58;215426;1256;60455;-73
2023/12/31 23:17:03;;;;;;;107.70;80.20;;;;;;;2.67;89.75;99784.48;215406;1258;72442;-74
2023/12/31 23:21:55;;;;;;;115.80;83.00;;;;;;;2.67;89.85;99782.08;216013;1254;60446;-73
2023/12/31 23:26:47;;;;;;;61.30;42.70;;;;;;;2.65;90.16;99777.40;216127;1254;60570;-74
2023/12/31 23:31:38;;;;;;;44.70;30.20;;;;;;;2.65;89.94;99768.86;216131;1252;60579;-73
2023/12/31 23:36:31;;;;;;;46.40;29.70;;;;;;;2.66;90.15;99765.46;216194;1254;60900;-74
2023/12/31 23:41:22;;;;;;;40.70;26.30;;;;;;;2.63;89.77;99760.73;216262;1253;60749;-75